2.600 kWh

EHAM AMSTERDAM/SCHIPHOL NLD -3 m.
METAR EHAM 241055Z 08017KT 050V110 CAVOK 02/M09 Q1026 NOSIG

EHAM AMSTERDAM/SCHIPHOL NLD -3 m.
TAF EHAM 240453Z 2406/2512 09014KT CAVOK
BECMG 2408/2411 08017G27KT
BECMG 2419/2422 08012KT